Charlton — S6HE4 — position and weather

sailwx.info

Track history (hours):
 
Tides and Currents Weather Stations Pressure Air Temp Water Temp Dewpoint Dewpoint Depression Visibility Wind Speed Wind Dir Waves Ship Positions

Charlton

Last reported at 2018-Jun-23 12:33 UTC. Time now 2018-Jun-25 04:32 UTC.
Position N 01°22' E 103°17'.

Length 120 m; draft 6.1 m.

Type: Ship (hazmat cat A). MMSI: 565321000.

Date/timePositionNaut miles runAvg speedWind from/ knotsBaromVisibWave heightAir tempDewpointWater temp
2018-Jun-23 12:33N 01°22' E 103°17'113.7
2018-Jun-23 12:28N 01°21' E 103°18'713.7
2018-Jun-23 11:58N 01°17' E 103°23'612.8
2018-Jun-23 11:27N 01°14' E 103°28'612.7
2018-Jun-23 11:00N 01°12' E 103°34'611.5
2018-Jun-23 10:30N 01°12' E 103°40'2 4.2
2018-Jun-23 09:55N 01°12' E 103°42'0 0.0
2018-Jun-23 09:29N 01°12' E 103°42'0 0.2
2018-Jun-23 08:58N 01°12' E 103°42'0 0.1
2018-Jun-23 08:29N 01°12' E 103°42'0 0.0
2018-Jun-23 07:56N 01°12' E 103°42'0 0.0
2018-Jun-23 07:20N 01°12' E 103°42'0 0.1
2018-Jun-23 06:41N 01°12' E 103°42'0 0.0
2018-Jun-23 06:23N 01°12' E 103°42'0 0.0
2018-Jun-23 05:59N 01°12' E 103°42'0 0.0
2018-Jun-23 05:26N 01°12' E 103°42'0 0.0
2018-Jun-23 04:53N 01°12' E 103°42'0 0.0
2018-Jun-23 04:29N 01°12' E 103°42'0 0.1
2018-Jun-23 03:50N 01°12' E 103°42'0 0.0
2018-Jun-23 03:29N 01°12' E 103°42'0 0.1
2018-Jun-23 02:53N 01°12' E 103°42'0 0.1
2018-Jun-23 02:02N 01°12' E 103°42'0 0.0
2018-Jun-23 01:59N 01°12' E 103°42'0 0.0
2018-Jun-23 01:26N 01°12' E 103°42'0 0.2
2018-Jun-23 00:59N 01°12' E 103°42'0 0.1
2018-Jun-23 00:26N 01°12' E 103°42'0 0.1
2018-Jun-22 23:53N 01°12' E 103°42'0 0.0
2018-Jun-22 23:26N 01°12' E 103°42'0 0.0
2018-Jun-22 22:59N 01°12' E 103°42'0 0.0
2018-Jun-22 22:05N 01°12' E 103°42'0 0.0
2018-Jun-22 21:47N 01°12' E 103°42'0 0.1
2018-Jun-22 21:17N 01°12' E 103°42'0 0.2
2018-Jun-22 20:56N 01°12' E 103°42'0 0.1
2018-Jun-22 20:29N 01°12' E 103°42'0 0.1
2018-Jun-22 19:50N 01°12' E 103°42'0 0.0
2018-Jun-22 19:29N 01°12' E 103°42'0 0.0
2018-Jun-22 18:59N 01°12' E 103°42'0 0.0
2018-Jun-22 18:29N 01°12' E 103°42'0 0.0
2018-Jun-22 17:59N 01°12' E 103°42'0 0.0
2018-Jun-22 17:26N 01°12' E 103°42'0 0.0
2018-Jun-22 16:59N 01°12' E 103°42'0 0.0
2018-Jun-22 16:29N 01°12' E 103°42'0 0.0
2018-Jun-22 15:56N 01°12' E 103°42'0 0.0
2018-Jun-22 15:29N 01°12' E 103°42'0 0.0
2018-Jun-22 14:58N 01°12' E 103°42'0 0.0
2018-Jun-22 14:26N 01°12' E 103°42'0 0.0
2018-Jun-22 13:59N 01°12' E 103°42'0 0.0
2018-Jun-22 13:29N 01°12' E 103°42'0 0.0
2018-Jun-22 12:47N 01°12' E 103°42'0 0.0
2018-Jun-22 12:29N 01°12' E 103°42'0 0.0
2018-Jun-22 11:59N 01°12' E 103°42'0 0.0
2018-Jun-22 11:26N 01°12' E 103°42'0 0.0
2018-Jun-22 10:56N 01°12' E 103°42'0 0.0
2018-Jun-22 10:28N 01°12' E 103°42'0 0.1
2018-Jun-22 09:59N 01°12' E 103°42'0 0.0
2018-Jun-22 09:29N 01°12' E 103°42'0 0.1
2018-Jun-22 08:53N 01°12' E 103°42'0 0.0
2018-Jun-22 08:23N 01°12' E 103°42'0 0.2
2018-Jun-22 07:59N 01°12' E 103°42'0 0.0
2018-Jun-22 07:29N 01°12' E 103°42'0 0.1
2018-Jun-22 06:53N 01°12' E 103°42'0 0.0
2018-Jun-22 06:29N 01°12' E 103°42'0 0.0
2018-Jun-22 05:46N 01°12' E 103°42'0 0.0
2018-Jun-22 05:30N 01°12' E 103°42'1 1.3
2018-Jun-22 05:01N 01°11' E 103°42'3 6.2
2018-Jun-22 04:30N 01°09' E 103°44'4 8.5
2018-Jun-22 04:01N 01°11' E 103°48'3 6.8
2018-Jun-22 03:30N 01°12' E 103°51'3 6.5
2018-Jun-22 03:00N 01°13' E 103°54'510.0
2018-Jun-22 02:30N 01°15' E 103°59'5 9.8
2018-Jun-22 02:00N 01°16' E 104°04'5 9.6
2018-Jun-22 01:30N 01°17' E 104°09'5 9.6
2018-Jun-22 00:57N 01°17' E 104°14'510.7
2018-Jun-22 00:29N 01°18' E 104°19'15 0.4
2018-Jun-20 15:19N 01°31' E 104°25'21 6.7
2018-Jun-20 12:12N 01°50' E 104°35'3 9.9
2018-Jun-20 11:55N 01°53' E 104°36'4 9.9
2018-Jun-20 11:28N 01°57' E 104°37'  
Track history (hours):
 
Tides and Currents Weather Stations Pressure Air Temp Water Temp Dewpoint Dewpoint Depression Visibility Wind Speed Wind Dir Waves Ship Positions

Charlton

Last reported at 2018-Jun-23 12:33 UTC. Time now 2018-Jun-25 04:32 UTC.
Position N 01°22' E 103°17'.

Length 120 m; draft 6.1 m.

Type: Ship (hazmat cat A). MMSI: 565321000.

Date/timePositionNaut miles runAvg speedWind from/ knotsBaromVisibWave heightAir tempDewpointWater temp
2018-Jun-23 12:33N 01°22' E 103°17'113.7
2018-Jun-23 12:28N 01°21' E 103°18'713.7
2018-Jun-23 11:58N 01°17' E 103°23'612.8
2018-Jun-23 11:27N 01°14' E 103°28'612.7
2018-Jun-23 11:00N 01°12' E 103°34'611.5
2018-Jun-23 10:30N 01°12' E 103°40'2 4.2
2018-Jun-23 09:55N 01°12' E 103°42'0 0.0
2018-Jun-23 09:29N 01°12' E 103°42'0 0.2
2018-Jun-23 08:58N 01°12' E 103°42'0 0.1
2018-Jun-23 08:29N 01°12' E 103°42'0 0.0
2018-Jun-23 07:56N 01°12' E 103°42'0 0.0
2018-Jun-23 07:20N 01°12' E 103°42'0 0.1
2018-Jun-23 06:41N 01°12' E 103°42'0 0.0
2018-Jun-23 06:23N 01°12' E 103°42'0 0.0
2018-Jun-23 05:59N 01°12' E 103°42'0 0.0
2018-Jun-23 05:26N 01°12' E 103°42'0 0.0
2018-Jun-23 04:53N 01°12' E 103°42'0 0.0
2018-Jun-23 04:29N 01°12' E 103°42'0 0.1
2018-Jun-23 03:50N 01°12' E 103°42'0 0.0
2018-Jun-23 03:29N 01°12' E 103°42'0 0.1
2018-Jun-23 02:53N 01°12' E 103°42'0 0.1
2018-Jun-23 02:02N 01°12' E 103°42'0 0.0
2018-Jun-23 01:59N 01°12' E 103°42'0 0.0
2018-Jun-23 01:26N 01°12' E 103°42'0 0.2
2018-Jun-23 00:59N 01°12' E 103°42'0 0.1
2018-Jun-23 00:26N 01°12' E 103°42'0 0.1
2018-Jun-22 23:53N 01°12' E 103°42'0 0.0
2018-Jun-22 23:26N 01°12' E 103°42'0 0.0
2018-Jun-22 22:59N 01°12' E 103°42'0 0.0
2018-Jun-22 22:05N 01°12' E 103°42'0 0.0
2018-Jun-22 21:47N 01°12' E 103°42'0 0.1
2018-Jun-22 21:17N 01°12' E 103°42'0 0.2
2018-Jun-22 20:56N 01°12' E 103°42'0 0.1
2018-Jun-22 20:29N 01°12' E 103°42'0 0.1
2018-Jun-22 19:50N 01°12' E 103°42'0 0.0
2018-Jun-22 19:29N 01°12' E 103°42'0 0.0
2018-Jun-22 18:59N 01°12' E 103°42'0 0.0
2018-Jun-22 18:29N 01°12' E 103°42'0 0.0
2018-Jun-22 17:59N 01°12' E 103°42'0 0.0
2018-Jun-22 17:26N 01°12' E 103°42'0 0.0
2018-Jun-22 16:59N 01°12' E 103°42'0 0.0
2018-Jun-22 16:29N 01°12' E 103°42'0 0.0
2018-Jun-22 15:56N 01°12' E 103°42'0 0.0
2018-Jun-22 15:29N 01°12' E 103°42'0 0.0
2018-Jun-22 14:58N 01°12' E 103°42'0 0.0
2018-Jun-22 14:26N 01°12' E 103°42'0 0.0
2018-Jun-22 13:59N 01°12' E 103°42'0 0.0
2018-Jun-22 13:29N 01°12' E 103°42'0 0.0
2018-Jun-22 12:47N 01°12' E 103°42'0 0.0
2018-Jun-22 12:29N 01°12' E 103°42'0 0.0
2018-Jun-22 11:59N 01°12' E 103°42'0 0.0
2018-Jun-22 11:26N 01°12' E 103°42'0 0.0
2018-Jun-22 10:56N 01°12' E 103°42'0 0.0
2018-Jun-22 10:28N 01°12' E 103°42'0 0.1
2018-Jun-22 09:59N 01°12' E 103°42'0 0.0
2018-Jun-22 09:29N 01°12' E 103°42'0 0.1
2018-Jun-22 08:53N 01°12' E 103°42'0 0.0
2018-Jun-22 08:23N 01°12' E 103°42'0 0.2
2018-Jun-22 07:59N 01°12' E 103°42'0 0.0
2018-Jun-22 07:29N 01°12' E 103°42'0 0.1
2018-Jun-22 06:53N 01°12' E 103°42'0 0.0
2018-Jun-22 06:29N 01°12' E 103°42'0 0.0
2018-Jun-22 05:46N 01°12' E 103°42'0 0.0
2018-Jun-22 05:30N 01°12' E 103°42'1 1.3
2018-Jun-22 05:01N 01°11' E 103°42'3 6.2
2018-Jun-22 04:30N 01°09' E 103°44'4 8.5
2018-Jun-22 04:01N 01°11' E 103°48'3 6.8
2018-Jun-22 03:30N 01°12' E 103°51'3 6.5
2018-Jun-22 03:00N 01°13' E 103°54'510.0
2018-Jun-22 02:30N 01°15' E 103°59'5 9.8
2018-Jun-22 02:00N 01°16' E 104°04'5 9.6
2018-Jun-22 01:30N 01°17' E 104°09'5 9.6
2018-Jun-22 00:57N 01°17' E 104°14'510.7
2018-Jun-22 00:29N 01°18' E 104°19'15 0.4
2018-Jun-20 15:19N 01°31' E 104°25'21 6.7
2018-Jun-20 12:12N 01°50' E 104°35'3 9.9
2018-Jun-20 11:55N 01°53' E 104°36'4 9.9
2018-Jun-20 11:28N 01°57' E 104°37'  

Dump ship's entire track history